Rogers Spring, Nevada Weather observations

Data are for 10 minute period ending at time listed.
 Day   Time   Solar   Ave.   Ave.  Ave.  Vector  Max.   Baro.   Total    
  of    of     Rad.   Air    Rel.  Wind   Wind   Wind  Press.  Precip.   
Year   Day            Temp.  Hum.  Speed  Dir.   Gust                    
2015   (PST)  Kw/m2    F      %     mph   deg.    mph    mb.     in.     
-------------------------------------------------------------------------
  58   16:50   0.13   63.9    21    6.7   162    11.2   920.4    0.00 
  58   17:00   0.10   63.4    22    5.6   163    11.2   920.3    0.00 
  58   17:10   0.07   62.8    23    5.3   151    10.4   920.1    0.00 
  58   17:20   0.05   62.0    24    4.6   152     9.6   919.9    0.00 
  58   17:30   0.02   61.0    26    3.6   145     7.2   919.8    0.00 
  58   17:40   0.01   59.9    27    3.8   144     6.9   919.6    0.00 
  58   17:50   0.00   59.3    28    4.4   148    10.3   919.5    0.00 
  58   18:00   0.00   58.7    29    4.1   149     9.1   919.4    0.00 
  58   18:10   0.00   58.2    30    4.4   153     9.3   919.4    0.00 
  58   18:20   0.00   57.3    31    3.4   182     8.0   919.3    0.00 
  58   18:30   0.00   54.8    34    1.9   168     5.0   919.2    0.00 
  58   18:40   0.00   54.2    36    2.7   145     4.7   919.2    0.00 
  58   18:50   0.00   54.9    36    2.8   139     5.7   919.0    0.00 
  58   19:00   0.00   56.2    36    4.2   146     7.4   919.0    0.00 
  58   19:10   0.00   56.0    36    3.6   151     6.0   918.9    0.00 
  58   19:20   0.00   55.8    37    4.1   162     6.9   918.9    0.00 
  58   19:30   0.00   55.8    38    4.6   158     8.8   918.9    0.00 
  58   19:40   0.00   56.3    38    4.5   150     8.1   918.9    0.00 
  58   19:50   0.00   56.5    38    5.6   148    11.0   918.9    0.00 
  58   20:00   0.00   57.1    37    6.6   152    12.3   918.8    0.00 
  58   20:10   0.00   56.2    39    6.0   158    11.1   918.8    0.00 
  58   20:20   0.00   55.6    40    5.2   156     9.4   918.8    0.00 
  58   20:30   0.00   55.6    40    6.0   154    11.0   918.7    0.00 
  58   20:40   0.00   55.7    38    6.4   154    11.6   918.8    0.00 
  58   20:50   0.00   55.7    38    6.6   152    12.9   918.8    0.00 
  58   21:00   0.00   56.2    37    7.9   154    13.7   918.8    0.00 
  58   21:10   0.00   56.1    37    7.9   158    15.3   918.9    0.00 
  58   21:20   0.00   56.1    37    8.4   153    17.3   918.9    0.00 
  58   21:30   0.00   55.3    38    7.7   155    12.8   919.0    0.00 
  58   21:40   0.00   55.4    38    7.8   153    12.8   919.2    0.00 
  58   21:50   0.00   55.9    37    7.6   150    14.2   919.2    0.00 
  58   22:00   0.00   55.7    38    8.4   152    16.4   919.2    0.00 
  58   22:10   0.00   55.6    38    9.3   154    15.9   919.3    0.00 
  58   22:20   0.00   55.8    37   10.6   154    15.9   919.3    0.00 
  58   22:30   0.00   55.5    38    9.4   152    14.8   919.4    0.00 
  58   22:40   0.00   55.3    38    8.1   152    13.9   919.5    0.00 
  58   22:50   0.00   55.2    39    9.1   152    16.1   919.5    0.00 
  58   23:00   0.00   55.0    40    9.5   154    16.4   919.5    0.00 
  58   23:10   0.00   54.8    42    8.0   154    15.0   919.7    0.00 
  58   23:20   0.00   54.6    43    8.4   150    15.1   919.7    0.00 
  58   23:30   0.00   54.5    44    9.3   153    17.9   919.8    0.00 
  58   23:40   0.00   53.8    44    7.0   175    18.2   919.8    0.00 
  58   23:50   0.00   51.7    48    5.4   182    11.5   919.9    0.00 
  59    0:00   0.00   52.9    46    5.9   175    13.8   920.0    0.00 
  59    0:10   0.00   51.8    48    4.8   182     9.8   920.1    0.00 
  59    0:20   0.00   50.4    49    4.6   179     8.9   920.2    0.00 
  59    0:30   0.00   48.7    51    3.0   144     5.6   920.3    0.00 
  59    0:40   0.00   47.9    54    2.9   113     4.7   920.4    0.00 
  59    0:50   0.00   48.3    54    3.1   154     5.0   920.5    0.00 
  59    1:00   0.00   47.9    55    2.8   160     4.0   920.5    0.00 
  59    1:10   0.00   47.2    57    2.6   167     4.1   920.4    0.00 
  59    1:20   0.00   46.6    59    1.9   183     2.6   920.4    0.00 
  59    1:30   0.00   45.6    61    2.3   128     5.9   920.5    0.00 
  59    1:40   0.00   46.1    61    2.0    81     3.7   920.6    0.00 
  59    1:50   0.00   46.9    61    1.9   114     5.0   920.5    0.00 
  59    2:00   0.00   47.9    61    2.6    88     4.6   920.5    0.00 
  59    2:10   0.00   47.3    63    2.4    61     3.1   920.5    0.00 
  59    2:20   0.00   45.5    66    2.6    57     3.4   920.5    0.00 
  59    2:30   0.00   45.3    67    2.6    79     3.7   920.5    0.00 
  59    2:40   0.00   46.7    64    2.4    98     4.2   920.5    0.00 
  59    2:50   0.00   47.5    62    2.0    90     3.1   920.7    0.00 
  59    3:00   0.00   46.9    64    2.2    82     2.9   920.5    0.00 
  59    3:10   0.00   47.3    62    2.0   110     3.6   920.6    0.00 
  59    3:20   0.00   47.6    62    2.3   138     4.2   920.5    0.00 
  59    3:30   0.00   47.4    63    2.0   156     3.3   920.6    0.00 
  59    3:40   0.00   46.3    65    1.9   164     3.1   920.6    0.00 
  59    3:50   0.00   45.3    67    2.2   167     3.7   920.7    0.00 
  59    4:00   0.00   45.1    69    2.5   160     4.1   920.8    0.00 
  59    4:10   0.00   45.0    69    2.8   158     4.5   920.8    0.00 
  59    4:20   0.00   44.9    69    2.9   162     4.9   920.9    0.00 
  59    4:30   0.00   44.9    69    2.5   171     4.7   921.1    0.00 
  59    4:40   0.00   44.0    70    1.8   175     3.1   921.2    0.00 
  59    4:50   0.00   43.5    72    3.5   169     5.9   921.3    0.00 
  59    5:00   0.00   44.4    70    2.9   168     5.1   921.2    0.00 
  59    5:10   0.00   43.4    71    2.1   164     3.5   921.3    0.00 
  59    5:20   0.00   42.5    73    1.4   160     2.2   921.4    0.00 
  59    5:30   0.00   41.2    75    1.6   182     2.1   921.6    0.00 
  59    5:40   0.00   39.8    78    1.9   176     2.7   921.6    0.00 
  59    5:50   0.00   39.8    79    2.5   164     3.4   921.8    0.00 
  59    6:00   0.00   40.5    78    2.3   168     3.1   921.9    0.00 
  59    6:10   0.00   41.2    77    1.8   166     3.1   922.0    0.00 
  59    6:20   0.00   42.7    74    2.0   165     5.8   922.2    0.00 
  59    6:30   0.01   43.7    72    1.3   127     2.5   922.2    0.00 
  59    6:40   0.01   45.1    68    2.0   124     4.3   922.3    0.00 
  59    6:50   0.02   45.1    68    2.2   119     4.1   922.3    0.00 
  59    7:00   0.02   44.9    68    2.0   118     3.4   922.4    0.00 
  59    7:10   0.03   44.9    67    1.9   126     4.0   922.5    0.00 
  59    7:20   0.03   44.6    67    1.8   132     3.1   922.7    0.00 
  59    7:30   0.05   44.5    68    2.1   154     5.0   922.7    0.00 
  59    7:40   0.05   44.6    68    2.5   180     4.0   922.9    0.00 
  59    7:50   0.20   46.0    67    1.9   186     3.6   923.1    0.00 
  59    8:00   0.18   49.1    59    2.0   196     5.0   923.2    0.00 
  59    8:10   0.37   51.2    54    1.0   193     3.9   923.2    0.00 
  59    8:20   0.46   53.4    50    1.7    63     3.5   923.2    0.00 
  59    8:30   0.49   55.2    46    1.5   128     6.5   923.2    0.00 
  59    8:40   0.44   56.3    42    4.4   174     9.6   923.4    0.00 
  59    8:50   0.46   56.4    38    6.6   136    12.2   923.5    0.00 
  59    9:00   0.48   56.8    37    5.9   153    10.1   923.6    0.00 
  59    9:10   0.51   57.1    34    8.2   174    15.3   923.7    0.00 
  59    9:20   0.54   57.4    33    8.4   179    16.4   923.7    0.00 
  59    9:30   0.55   57.5    32    8.9   168    15.2   923.7    0.00 
  59    9:40   0.59   57.8    32    8.4   173    15.1   923.8    0.00 
  59    9:50   0.61   58.2    31    8.5   175    14.7   923.9    0.00 
  59   10:00   0.65   59.2    30    7.9   175    15.4   923.9    0.00 
  59   10:10   0.69   59.6    29    8.4   183    14.5   924.0    0.00 
  59   10:20   0.76   60.5    29    8.2   181    14.5   924.1    0.00 
  59   10:30   0.54   59.3    30    8.4   185    14.3   924.2    0.00 
  59   10:40   0.64   58.9    30    8.6   176    15.2   924.3    0.00 
  59   10:50   0.78   60.7    28    9.5   177    18.1   924.4    0.00 
  59   11:00   0.79   60.5    27   10.1   176    17.4   924.4    0.00 
  59   11:10   0.83   60.9    26   10.9   182    19.1   924.4    0.00 
  59   11:20   0.82   61.3    25   10.1   174    20.8   924.5    0.00 
  59   11:30   0.73   61.6    24    9.4   170    17.5   924.5    0.00 
  59   11:40   0.94   62.3    24    9.9   164    21.1   924.4    0.00 
  59   11:50   0.88   62.5    24   10.1   174    18.0   924.4    0.00 
  59   12:00   0.74   61.3    24    9.4   165    18.2   924.3    0.00 
  59   12:10   0.80   61.4    25    9.3   167    16.4   924.1    0.00 
  59   12:20   0.81   61.9    24    9.7   171    16.9   924.1    0.00 
  59   12:30   0.76   62.2    24    9.7   156    19.3   924.0    0.00 
  59   12:40   0.80   62.0    24    8.9   166    17.3   923.9    0.00 
  59   12:50   0.78   62.9    23    8.7   182    14.6   923.8    0.00 
  59   13:00   0.81   63.4    22    8.6   162    17.4   923.8    0.00 
  59   13:10   0.21   60.9    23    9.7   162    17.5   923.8    0.00 
  59   13:20   0.37   60.0    24   10.4   159    17.5   923.6    0.00 
  59   13:30   0.30   59.8    23   10.6   168    20.7   923.5    0.00 
  59   13:40   0.61   60.7    22   10.3   163    19.8   923.3    0.00 
  59   13:50   0.80   63.1    20   11.7   164    21.0   923.3    0.00 
  59   14:00   0.71   63.6    19   10.7   163    18.0   923.4    0.00 
  59   14:10   0.61   63.0    19   11.1   163    19.3   923.4    0.00 
  59   14:20   0.21   61.0    20   10.2   165    17.7   923.4    0.00 
  59   14:30   0.16   59.6    21    9.2   172    18.1   923.5    0.00 
  59   14:40   0.25   60.4    20   10.3   175    20.2   923.4    0.00 
  59   14:50   0.32   61.1    19    9.9   170    19.6   923.4    0.00 
  59   15:00   0.18   60.2    20   10.0   175    16.4   923.5    0.00 
  59   15:10   0.33   60.7    19   10.9   174    19.8   923.5    0.00 
  59   15:20   0.48   62.9    18   11.1   175    18.0   923.5    0.00 
  59   15:30   0.37   62.7    18   11.8   174    20.2   923.6    0.00 
  59   15:40   0.12   60.0    19   11.2   171    19.4   923.8    0.00 
  59   15:50   0.08   58.9    20   10.3   169    18.8   923.8    0.00 
  59   16:00   0.12   58.9    21   11.2   170    18.5   923.7    0.00 
  59   16:10   0.15   59.4    22   10.2   171    19.1   923.9    0.00 
  59   16:20   0.11   59.3    22    9.6   174    16.3   923.9    0.00 
  59   16:30   0.09   59.0    24    7.7   195    16.1   924.1    0.00 
  59   16:40   0.08   58.2    28    7.8   255    16.9   924.1    0.00 

Return to Rogers Spring graphs page.


Western Regional Climate Center,wrcc@dri.edu